createdAt,value
2023-04-23T00:02:03.330Z,97631.66
2023-04-23T00:04:31.217Z,97652.00
2023-04-23T00:06:58.748Z,97654.19
2023-04-23T00:09:26.937Z,97663.88
2023-04-23T00:11:54.126Z,97693.94
2023-04-23T00:14:21.271Z,97752.72
2023-04-23T00:16:48.485Z,97764.97
2023-04-23T00:19:15.843Z,97797.81
2023-04-23T00:21:42.894Z,97818.56
2023-04-23T00:24:09.986Z,97870.44
2023-04-23T00:26:37.054Z,97966.03
2023-04-23T00:29:04.121Z,98000.91
2023-04-23T00:31:31.255Z,98022.59
2023-04-23T00:33:58.460Z,98062.72
2023-04-23T00:36:26.382Z,98090.88
2023-04-23T00:38:53.794Z,98109.75
2023-04-23T00:41:20.919Z,98149.22
2023-04-23T00:43:49.105Z,98146.41
2023-04-23T00:46:16.836Z,98179.94
2023-04-23T00:48:46.190Z,98209.06
2023-04-23T00:51:13.304Z,98222.03
2023-04-23T00:53:40.468Z,98281.34
2023-04-23T00:56:08.657Z,98326.16
2023-04-23T00:58:36.605Z,98339.44
2023-04-23T01:01:04.691Z,98349.84
2023-04-23T01:03:32.824Z,98338.22
2023-04-23T01:06:00.217Z,98349.47
2023-04-23T01:08:28.402Z,98364.84
2023-04-23T01:10:55.476Z,98352.81
2023-04-23T01:13:22.958Z,98330.06
2023-04-23T01:15:50.515Z,98315.88
2023-04-23T01:18:19.288Z,98295.97
2023-04-23T01:20:46.772Z,98312.56
2023-04-23T01:23:13.897Z,98317.41
2023-04-23T01:25:42.773Z,98285.75
2023-04-23T01:28:10.478Z,98297.28
2023-04-23T01:30:39.412Z,98305.16
2023-04-23T01:33:07.192Z,98295.06
2023-04-23T01:35:35.794Z,98303.97
2023-04-23T01:38:03.481Z,98308.75
2023-04-23T01:40:30.794Z,98299.28
2023-04-23T01:42:58.240Z,98298.75
2023-04-23T01:45:25.752Z,98311.81
2023-04-23T01:47:53.633Z,98302.28
2023-04-23T01:50:23.302Z,98314.72
2023-04-23T01:52:51.095Z,98325.50
2023-04-23T01:55:20.826Z,98333.78
2023-04-23T01:57:47.991Z,98318.22
2023-04-23T02:00:15.688Z,98329.44
2023-04-23T02:02:44.398Z,98325.97
2023-04-23T02:05:13.472Z,98334.94
2023-04-23T02:07:40.733Z,98340.38
2023-04-23T02:10:08.379Z,98319.28
2023-04-23T02:12:36.882Z,98332.16
2023-04-23T02:15:04.399Z,98323.25
2023-04-23T02:17:31.544Z,98339.22
2023-04-23T02:19:58.648Z,98354.09
2023-04-23T02:22:26.608Z,98350.38
2023-04-23T02:24:54.127Z,98359.69
2023-04-23T02:27:22.093Z,98353.72
2023-04-23T02:29:49.471Z,98357.88
2023-04-23T02:32:16.607Z,98359.56
2023-04-23T02:34:43.777Z,98380.72
2023-04-23T02:37:11.909Z,98385.06
2023-04-23T02:39:39.203Z,98382.00
2023-04-23T02:42:06.494Z,98377.66
2023-04-23T02:44:33.564Z,98393.59
2023-04-23T02:47:00.781Z,98413.50
2023-04-23T02:49:28.049Z,98418.06
2023-04-23T02:51:55.358Z,98409.34
2023-04-23T02:57:18.357Z,98388.63
2023-04-23T02:59:45.502Z,98398.16
2023-04-23T03:02:12.735Z,98391.94
2023-04-23T03:04:40.328Z,98421.13
2023-04-23T03:07:07.678Z,98410.59
2023-04-23T03:09:36.647Z,98415.38
2023-04-23T03:12:03.805Z,98418.44
2023-04-23T03:14:30.868Z,98420.09
2023-04-23T03:16:58.067Z,98416.81
2023-04-23T03:19:25.529Z,98437.53
2023-04-23T03:21:53.483Z,98442.50
2023-04-23T03:24:20.525Z,98459.28
2023-04-23T03:26:47.633Z,98477.69
2023-04-23T03:29:15.649Z,98483.94
2023-04-23T03:31:42.937Z,98493.88
2023-04-23T03:34:10.862Z,98505.50
2023-04-23T03:36:38.885Z,98530.78
2023-04-23T03:39:07.478Z,98561.47
2023-04-23T03:41:46.769Z,98583.00
2023-04-23T03:44:15.985Z,98595.84
2023-04-23T03:46:45.246Z,98620.31
2023-04-23T03:49:13.783Z,98634.81
2023-04-23T03:51:40.891Z,98665.69
2023-04-23T03:54:08.981Z,98697.19
2023-04-23T03:56:41.723Z,98742.97
2023-04-23T03:59:31.710Z,98756.22
2023-04-23T04:02:00.317Z,98792.03
2023-04-23T04:04:28.318Z,98822.09
2023-04-23T04:06:56.637Z,98858.97
2023-04-23T04:09:27.593Z,98875.97
2023-04-23T04:11:55.188Z,98907.25
2023-04-23T04:14:22.871Z,98928.16
2023-04-23T04:16:49.914Z,98969.59
2023-04-23T04:19:17.148Z,99069.88
2023-04-23T04:21:44.306Z,99085.38
2023-04-23T04:24:11.616Z,99100.28
2023-04-23T04:26:39.678Z,99117.25
2023-04-23T04:29:06.812Z,99147.31
2023-04-23T04:31:34.824Z,99147.94
2023-04-23T04:34:01.963Z,99142.72
2023-04-23T04:36:29.637Z,99161.97
2023-04-23T04:38:58.692Z,99177.56
2023-04-23T04:41:26.022Z,99192.59
2023-04-23T04:43:54.585Z,99216.84
2023-04-23T04:46:21.795Z,99225.94
2023-04-23T04:48:48.996Z,99263.25
2023-04-23T04:51:16.115Z,99289.00
2023-04-23T04:53:43.433Z,99318.78
2023-04-23T04:56:10.549Z,99346.94
2023-04-23T04:58:37.619Z,99382.59
2023-04-23T05:01:05.473Z,99409.06
2023-04-23T05:03:32.987Z,99442.59
2023-04-23T05:06:00.097Z,99485.28
2023-04-23T05:08:27.179Z,99517.44
2023-04-23T05:10:54.360Z,99554.03
2023-04-23T05:13:22.227Z,99587.16
2023-04-23T05:15:49.335Z,99620.84
2023-04-23T05:18:16.413Z,99632.94
2023-04-23T05:20:43.508Z,99642.72
2023-04-23T05:23:11.115Z,99662.94
2023-04-23T05:25:38.222Z,99696.75
2023-04-23T05:28:05.388Z,99710.66
2023-04-23T05:30:32.455Z,99730.91
2023-04-23T05:32:59.594Z,99772.69
2023-04-23T05:35:26.714Z,99816.63
2023-04-23T05:37:54.015Z,99859.22
2023-04-23T05:40:21.076Z,99916.25
2023-04-23T05:42:48.130Z,99946.34
2023-04-23T05:45:15.427Z,99968.41
2023-04-23T05:47:42.510Z,99982.03
2023-04-23T05:50:11.576Z,100001.72
2023-04-23T05:52:39.471Z,99789.81
2023-04-23T05:55:08.112Z,99745.50
2023-04-23T05:57:38.940Z,99753.41
2023-04-23T06:00:14.376Z,99771.13
2023-04-23T06:02:41.876Z,99795.19
2023-04-23T06:05:09.520Z,99801.09
2023-04-23T06:07:36.773Z,99820.28
2023-04-23T06:10:05.529Z,99821.22
2023-04-23T06:12:32.615Z,99826.41
2023-04-23T06:14:59.653Z,99814.47
2023-04-23T06:17:26.710Z,99817.69
2023-04-23T06:19:53.752Z,99820.00
2023-04-23T06:22:20.919Z,99828.75
2023-04-23T06:24:47.957Z,99846.78
2023-04-23T06:27:14.999Z,99865.81
2023-04-23T06:29:46.240Z,99882.63
2023-04-23T06:32:13.784Z,99882.28
2023-04-23T06:34:49.960Z,99883.31
2023-04-23T06:37:29.752Z,99891.00
2023-04-23T06:39:57.901Z,99922.69
2023-04-23T06:42:25.037Z,99937.66
2023-04-23T06:45:13.023Z,99957.38
2023-04-23T06:47:40.132Z,99987.34
2023-04-23T06:50:08.382Z,99993.06
2023-04-23T06:52:36.043Z,99997.47
2023-04-23T06:55:03.260Z,99877.91
2023-04-23T06:57:30.340Z,99894.59
2023-04-23T06:59:57.421Z,99895.09
2023-04-23T07:02:29.421Z,99921.00
2023-04-23T07:04:56.585Z,99934.78
2023-04-23T07:07:23.634Z,99940.03
2023-04-23T07:09:50.916Z,100101.53
2023-04-23T07:12:17.960Z,100133.84
2023-04-23T07:14:45.159Z,100135.53
2023-04-23T07:17:12.343Z,100129.94
2023-04-23T07:19:39.400Z,100135.16
2023-04-23T07:22:06.454Z,100140.56
2023-04-23T07:24:33.514Z,100135.53
2023-04-23T07:27:01.034Z,100112.75
2023-04-23T07:29:28.115Z,100128.59
2023-04-23T07:31:55.228Z,100128.44
2023-04-23T07:34:22.506Z,100128.44
2023-04-23T07:36:49.548Z,100129.75
2023-04-23T07:39:16.783Z,100137.66
2023-04-23T07:41:43.879Z,100153.97
2023-04-23T07:44:10.978Z,100171.97
2023-04-23T07:46:38.013Z,100183.25
2023-04-23T07:49:05.129Z,100184.44
2023-04-23T07:51:32.258Z,100180.88
2023-04-23T07:53:59.389Z,100183.22
2023-04-23T07:56:26.486Z,100203.59
2023-04-23T07:58:58.288Z,100213.41
2023-04-23T08:01:25.945Z,100221.28
2023-04-23T08:03:59.065Z,100217.25
2023-04-23T08:06:27.820Z,100212.16
2023-04-23T08:08:56.105Z,100212.50
2023-04-23T08:11:23.722Z,100215.50
2023-04-23T08:13:50.818Z,100207.56
2023-04-23T08:16:17.939Z,100194.78
2023-04-23T08:18:57.876Z,100196.97
2023-04-23T08:21:32.553Z,100184.47
2023-04-23T08:23:59.684Z,100207.72
2023-04-23T08:26:26.788Z,100220.69
2023-04-23T08:28:53.905Z,100221.34
2023-04-23T08:31:26.610Z,100222.19
2023-04-23T08:33:54.929Z,100200.44
2023-04-23T08:36:22.031Z,100211.53
2023-04-23T08:38:49.097Z,100208.13
2023-04-23T08:41:17.987Z,100199.56
2023-04-23T08:43:47.928Z,100189.91
2023-04-23T08:46:16.171Z,100180.97
2023-04-23T08:48:44.540Z,100190.34
2023-04-23T08:51:13.349Z,100196.72
2023-04-23T08:53:43.896Z,100197.47
2023-04-23T08:56:12.391Z,100202.50
2023-04-23T08:58:39.608Z,100217.34
2023-04-23T09:01:07.388Z,100230.28
2023-04-23T09:03:35.494Z,100252.78
2023-04-23T09:06:02.682Z,100264.13
2023-04-23T09:08:30.740Z,100253.06
2023-04-23T09:11:00.757Z,100219.19
2023-04-23T09:13:28.343Z,100198.97
2023-04-23T09:15:55.547Z,100163.88
2023-04-23T09:18:22.806Z,100145.06
2023-04-23T09:20:50.186Z,100137.13
2023-04-23T09:23:21.263Z,100097.66
2023-04-23T09:25:48.464Z,100083.28
2023-04-23T09:28:15.638Z,100060.53
2023-04-23T09:30:46.051Z,100047.13
2023-04-23T09:33:13.547Z,100034.16
2023-04-23T09:35:43.210Z,100037.13
2023-04-23T09:38:10.731Z,100023.41
2023-04-23T09:40:38.786Z,100029.06
2023-04-23T09:43:07.336Z,100032.69
2023-04-23T09:45:35.394Z,100016.34
2023-04-23T09:48:02.625Z,99984.13
2023-04-23T09:50:37.003Z,99987.66
2023-04-23T09:53:04.969Z,99977.38
2023-04-23T09:55:35.871Z,99956.69
2023-04-23T09:58:04.496Z,99950.31
2023-04-23T10:00:39.163Z,99945.97
2023-04-23T10:03:07.896Z,99912.19
2023-04-23T10:08:09.051Z,99895.78
2023-04-23T10:10:51.011Z,99895.94
2023-04-23T10:13:24.463Z,99864.34
2023-04-23T10:15:52.393Z,99878.78
2023-04-23T10:18:20.456Z,99852.91
2023-04-23T10:20:48.516Z,99848.03
2023-04-23T10:23:16.921Z,99827.75
2023-04-23T10:25:45.258Z,99814.22
2023-04-23T10:28:15.679Z,99796.72
2023-04-23T10:30:44.194Z,99786.81
2023-04-23T10:33:22.552Z,99755.09
2023-04-23T10:35:57.129Z,99743.31
2023-04-23T10:38:25.161Z,99741.25
2023-04-23T10:40:55.284Z,99713.56
2023-04-23T10:43:23.113Z,99695.44
2023-04-23T10:45:50.526Z,99678.38
2023-04-23T10:48:17.676Z,99637.28
2023-04-23T10:51:02.521Z,99609.97
2023-04-23T10:53:35.927Z,99600.25
2023-04-23T10:56:07.347Z,99616.94
2023-04-23T10:58:50.640Z,99612.34
2023-04-23T11:01:18.567Z,99545.88
2023-04-23T11:03:45.977Z,99553.59
2023-04-23T11:06:15.618Z,99538.00
2023-04-23T11:08:53.689Z,99528.19
2023-04-23T11:11:25.143Z,99525.66
2023-04-23T11:13:54.097Z,99492.16
2023-04-23T11:16:22.201Z,99508.59
2023-04-23T11:18:55.820Z,99508.94
2023-04-23T11:21:22.912Z,99460.81
2023-04-23T11:23:49.958Z,99406.69
2023-04-23T11:26:18.465Z,99385.47
2023-04-23T11:28:46.436Z,99386.41
2023-04-23T11:31:14.832Z,99347.88
2023-04-23T11:33:41.886Z,99314.56
2023-04-23T11:36:08.969Z,99295.31
2023-04-23T11:38:36.556Z,99288.66
2023-04-23T11:41:05.270Z,99242.88
2023-04-23T11:43:32.308Z,99248.22
2023-04-23T11:46:00.688Z,99252.19
2023-04-23T11:48:27.814Z,99147.53
2023-04-23T11:50:54.969Z,99065.69
2023-04-23T11:53:23.658Z,99023.84
2023-04-23T11:55:53.617Z,99045.56
2023-04-23T11:58:20.871Z,99010.03
2023-04-23T12:00:49.783Z,99046.78
2023-04-23T12:03:17.298Z,99025.78
2023-04-23T12:05:44.849Z,98992.88
2023-04-23T12:08:16.542Z,99008.00
2023-04-23T12:10:46.530Z,99028.44
2023-04-23T12:13:14.415Z,98957.31
2023-04-23T12:15:48.335Z,98945.91
2023-04-23T12:18:16.024Z,98892.69
2023-04-23T12:20:43.352Z,98879.72
2023-04-23T12:23:10.753Z,98870.84
2023-04-23T12:25:40.439Z,98872.50
2023-04-23T12:28:07.735Z,98819.50
2023-04-23T12:30:35.428Z,98763.31
2023-04-23T12:33:03.462Z,98790.66
2023-04-23T12:35:39.432Z,98757.00
2023-04-23T12:38:06.624Z,98719.50
2023-04-23T12:40:34.313Z,98692.28
2023-04-23T12:43:01.386Z,98680.25
2023-04-23T12:45:36.670Z,98698.78
2023-04-23T12:48:03.911Z,98676.13
2023-04-23T12:50:31.062Z,98708.84
2023-04-23T12:52:58.234Z,98675.25
2023-04-23T12:55:25.282Z,98670.16
2023-04-23T12:57:52.381Z,98698.47
2023-04-23T13:00:19.457Z,98665.53
2023-04-23T13:02:46.701Z,98605.53
2023-04-23T13:05:13.899Z,98550.72
2023-04-23T13:07:41.370Z,98475.38
2023-04-23T13:10:08.748Z,98432.66
2023-04-23T13:12:35.791Z,98396.16
2023-04-23T13:15:03.090Z,98390.19
2023-04-23T13:17:31.978Z,98308.41
2023-04-23T13:19:59.214Z,98313.81
2023-04-23T13:22:29.113Z,98361.31
2023-04-23T13:24:59.614Z,98320.41
2023-04-23T13:27:27.850Z,98242.50
2023-04-23T13:29:55.464Z,98155.91
2023-04-23T13:32:23.817Z,98104.03
2023-04-23T13:34:51.388Z,98040.38
2023-04-23T13:37:18.447Z,98086.06
2023-04-23T13:39:45.908Z,98076.41
2023-04-23T13:42:13.235Z,98063.50
2023-04-23T13:44:40.411Z,98051.13
2023-04-23T13:47:07.552Z,98093.72
2023-04-23T13:49:34.610Z,98057.63
2023-04-23T13:52:06.472Z,98019.91
2023-04-23T13:54:33.865Z,98029.78
2023-04-23T13:57:01.200Z,98015.19
2023-04-23T13:59:28.297Z,98026.22
2023-04-23T14:01:55.346Z,97949.09
2023-04-23T14:04:26.914Z,97890.22
2023-04-23T14:06:54.213Z,97851.53
2023-04-23T14:09:22.394Z,97813.78
2023-04-23T14:11:49.743Z,97792.06
2023-04-23T14:14:16.823Z,97798.44
2023-04-23T14:16:44.249Z,97742.16
2023-04-23T14:19:11.336Z,97658.50
2023-04-23T14:21:38.653Z,97637.03
2023-04-23T14:24:09.997Z,97640.63
2023-04-23T14:29:20.172Z,97610.91
2023-04-23T14:31:47.247Z,97540.28
2023-04-23T14:34:14.303Z,97536.47
2023-04-23T14:36:41.396Z,97475.44
2023-04-23T14:39:08.496Z,97524.59
2023-04-23T14:41:35.926Z,97450.25
2023-04-23T14:44:03.483Z,97406.81
2023-04-23T14:46:31.084Z,97391.63
2023-04-23T14:48:58.269Z,97352.53
2023-04-23T14:51:27.301Z,97328.66
2023-04-23T14:53:56.594Z,97337.88
2023-04-23T14:56:24.071Z,97313.22
2023-04-23T14:58:51.230Z,97337.06
2023-04-23T15:01:18.416Z,97359.59
2023-04-23T15:03:46.511Z,97334.09
2023-04-23T15:06:13.875Z,97315.09
2023-04-23T15:08:40.916Z,97391.06
2023-04-23T15:11:13.288Z,97414.94
2023-04-23T15:13:43.355Z,97450.75
2023-04-23T15:16:46.692Z,97380.47
2023-04-23T15:19:17.572Z,97384.25
2023-04-23T15:21:45.002Z,97376.41
2023-04-23T15:24:12.199Z,97369.91
2023-04-23T15:26:39.564Z,97356.63
2023-04-23T15:29:09.052Z,97378.03
2023-04-23T15:31:36.851Z,97359.81
2023-04-23T15:34:06.113Z,97340.03
2023-04-23T15:36:34.752Z,97368.25
2023-04-23T15:39:01.845Z,97382.38
2023-04-23T15:41:28.982Z,97354.97
2023-04-23T15:43:56.568Z,97316.44
2023-04-23T15:46:23.684Z,97310.75
2023-04-23T15:48:50.744Z,97315.38
2023-04-23T15:51:17.964Z,97278.75
2023-04-23T15:53:45.013Z,97298.28
2023-04-23T15:56:12.042Z,97284.44
2023-04-23T15:58:39.161Z,97267.38
2023-04-23T16:01:07.271Z,97278.75
2023-04-23T16:03:34.864Z,97262.50
2023-04-23T16:06:02.225Z,97206.34
2023-04-23T16:08:29.304Z,97180.06
2023-04-23T16:10:58.117Z,97205.03
2023-04-23T16:13:25.317Z,97197.41
2023-04-23T16:15:52.474Z,97191.44
2023-04-23T16:18:19.577Z,97168.69
2023-04-23T16:20:46.891Z,97170.31
2023-04-23T16:23:14.463Z,97152.97
2023-04-23T16:25:41.670Z,97137.22
2023-04-23T16:28:09.001Z,97129.09
2023-04-23T16:30:36.239Z,97125.88
2023-04-23T16:33:03.418Z,97071.66
2023-04-23T16:35:30.560Z,97081.41
2023-04-23T16:37:57.638Z,97060.84
2023-04-23T16:40:24.798Z,97052.44
2023-04-23T16:42:51.910Z,97059.50
2023-04-23T16:45:23.080Z,97069.25
2023-04-23T16:47:50.596Z,97078.72
2023-04-23T16:50:17.785Z,97087.94
2023-04-23T16:52:44.815Z,97119.88
2023-04-23T16:55:11.977Z,97113.91
2023-04-23T16:57:39.044Z,97138.84
2023-04-23T17:00:06.433Z,97141.00
2023-04-23T17:02:34.684Z,97146.09
2023-04-23T17:05:02.022Z,97159.63
2023-04-23T17:07:29.161Z,97166.94
2023-04-23T17:09:56.551Z,97182.63
2023-04-23T17:12:23.679Z,97185.34
2023-04-23T17:14:50.781Z,97190.19
2023-04-23T17:17:17.863Z,97198.06
2023-04-23T17:19:45.806Z,97225.91
2023-04-23T17:22:13.070Z,97237.84
2023-04-23T17:24:40.489Z,97244.81
2023-04-23T17:27:07.840Z,97254.56
2023-04-23T17:29:34.873Z,97262.94
2023-04-23T17:32:02.845Z,97264.25
2023-04-23T17:34:30.010Z,97260.97
2023-04-23T17:36:57.183Z,97271.78
2023-04-23T17:39:25.574Z,97279.34
2023-04-23T17:41:53.135Z,97291.19
2023-04-23T17:44:20.276Z,97308.78
2023-04-23T17:46:47.625Z,97319.88
2023-04-23T17:49:14.785Z,97333.97
2023-04-23T17:51:41.863Z,97338.03
2023-04-23T17:54:08.951Z,97346.31
2023-04-23T17:56:36.155Z,97347.41
2023-04-23T17:59:03.847Z,97372.25
2023-04-23T18:01:31.833Z,97387.88
2023-04-23T18:03:59.345Z,97404.09
2023-04-23T18:06:27.058Z,97420.88
2023-04-23T18:08:54.089Z,97421.44
2023-04-23T18:11:21.434Z,97443.19
2023-04-23T18:13:53.499Z,97449.88
2023-04-23T18:16:21.071Z,97478.50
2023-04-23T18:18:49.474Z,97491.41
2023-04-23T18:21:17.652Z,97514.56
2023-04-23T18:23:45.367Z,97537.22
2023-04-23T18:26:12.440Z,97550.91
2023-04-23T18:28:39.557Z,97561.09
2023-04-23T18:31:06.655Z,97569.44
2023-04-23T18:33:42.246Z,97593.44
2023-04-23T18:36:21.138Z,97597.53
2023-04-23T18:38:49.529Z,97611.97
2023-04-23T18:41:16.700Z,97639.69
2023-04-23T18:43:43.862Z,97665.66
2023-04-23T18:46:11.015Z,97695.06
2023-04-23T18:48:45.609Z,97728.06
2023-04-23T18:51:18.822Z,97753.97
2023-04-23T18:53:46.717Z,97772.56
2023-04-23T18:56:13.750Z,97796.81
2023-04-23T18:58:40.842Z,97826.75
2023-04-23T19:01:07.993Z,97853.78
2023-04-23T19:03:35.191Z,97887.97
2023-04-23T19:06:07.217Z,97921.19
2023-04-23T19:08:35.121Z,98033.69
2023-04-23T19:11:03.119Z,98026.13
2023-04-23T19:13:30.345Z,97946.69
2023-04-23T19:15:57.679Z,97862.78
2023-04-23T19:18:24.850Z,97814.41
2023-04-23T19:20:52.688Z,97834.91
2023-04-23T19:23:20.358Z,97924.19
2023-04-23T19:25:48.060Z,97978.06
2023-04-23T19:28:15.261Z,98000.91
2023-04-23T19:30:42.378Z,98027.41
2023-04-23T19:33:09.481Z,98079.44
2023-04-23T19:35:39.359Z,98129.38
2023-04-23T19:38:07.303Z,98175.72
2023-04-23T19:40:34.525Z,98209.63
2023-04-23T19:43:01.677Z,98234.25
2023-04-23T19:45:30.087Z,98252.41
2023-04-23T19:47:57.515Z,98248.41
2023-04-23T19:50:24.919Z,98312.84
2023-04-23T19:52:52.579Z,98331.66
2023-04-23T19:55:22.221Z,98386.84
2023-04-23T19:57:49.291Z,98396.94
2023-04-23T20:00:16.711Z,98416.34
2023-04-23T20:02:43.979Z,98411.44
2023-04-23T20:05:11.497Z,98428.16
2023-04-23T20:07:38.859Z,98417.88
2023-04-23T20:10:06.404Z,98418.28
2023-04-23T20:12:33.942Z,98438.13
2023-04-23T20:15:00.991Z,98443.53
2023-04-23T20:17:29.944Z,98447.72
2023-04-23T20:20:01.648Z,98465.09
2023-04-23T20:22:29.279Z,98479.59
2023-04-23T20:24:56.851Z,98491.59
2023-04-23T20:27:23.880Z,98518.50
2023-04-23T20:29:51.408Z,98561.75
2023-04-23T20:32:18.470Z,98586.59
2023-04-23T20:34:45.646Z,98602.56
2023-04-23T20:37:13.631Z,98610.81
2023-04-23T20:39:41.937Z,98617.03
2023-04-23T20:42:09.305Z,98626.53
2023-04-23T20:44:36.465Z,98616.41
2023-04-23T20:47:08.321Z,98626.53
2023-04-23T20:49:35.653Z,98631.53
2023-04-23T20:52:02.751Z,98638.56
2023-04-23T20:54:29.795Z,98655.09
2023-04-23T20:56:57.605Z,98662.16
2023-04-23T20:59:24.647Z,98678.50
2023-04-23T21:01:51.717Z,98692.78
2023-04-23T21:04:19.028Z,98694.63
2023-04-23T21:06:49.052Z,98704.38
2023-04-23T21:09:16.337Z,98710.97
2023-04-23T21:11:43.739Z,98727.13
2023-04-23T21:14:10.864Z,98727.75
2023-04-23T21:16:38.192Z,98740.19
2023-04-23T21:19:05.756Z,98737.47
2023-04-23T21:21:32.935Z,98742.41
2023-04-23T21:24:02.808Z,98752.34
2023-04-23T21:26:30.658Z,98758.16
2023-04-23T21:28:57.794Z,98774.31
2023-04-23T21:31:32.700Z,98769.94
2023-04-23T21:33:59.776Z,98766.63
2023-04-23T21:36:26.847Z,98773.44
2023-04-23T21:38:54.098Z,98692.50
2023-04-23T21:41:21.369Z,98690.66
2023-04-23T21:43:48.491Z,98685.69
2023-04-23T21:46:16.223Z,98705.09
2023-04-23T21:48:43.287Z,98708.81
2023-04-23T21:51:11.577Z,98720.63
2023-04-23T21:53:38.628Z,98714.44
2023-04-23T21:56:05.921Z,98723.31
2023-04-23T21:58:34.792Z,98730.34
2023-04-23T22:01:02.043Z,98728.25
2023-04-23T22:03:37.473Z,98727.84
2023-04-23T22:06:06.595Z,98721.63
2023-04-23T22:08:33.760Z,98733.78
2023-04-23T22:11:00.956Z,98740.00
2023-04-23T22:13:28.021Z,98747.22
2023-04-23T22:15:57.438Z,98749.69
2023-04-23T22:18:24.871Z,98743.03
2023-04-23T22:20:52.974Z,98744.84
2023-04-23T22:23:20.450Z,98757.28
2023-04-23T22:25:47.533Z,98772.75
2023-04-23T22:28:14.650Z,98781.03
2023-04-23T22:30:41.725Z,98793.44
2023-04-23T22:33:08.777Z,98813.34
2023-04-23T22:35:36.003Z,98825.06
2023-04-23T22:38:03.069Z,98839.78
2023-04-23T22:40:30.139Z,98855.91
2023-04-23T22:42:57.186Z,99097.00
2023-04-23T22:45:24.345Z,99116.03
2023-04-23T22:47:51.579Z,99118.50
2023-04-23T22:50:18.689Z,99107.84
2023-04-23T22:52:45.746Z,99109.91
2023-04-23T22:55:12.872Z,99117.22
2023-04-23T22:57:40.308Z,99120.56
2023-04-23T23:00:07.714Z,99122.97
2023-04-23T23:02:34.936Z,99128.34
2023-04-23T23:05:02.135Z,99141.84
2023-04-23T23:07:30.655Z,99145.38
2023-04-23T23:09:57.728Z,99147.22
2023-04-23T23:12:24.826Z,99147.91
2023-04-23T23:14:51.905Z,99142.78
2023-04-23T23:17:18.981Z,99127.81
2023-04-23T23:19:46.005Z,99143.13
2023-04-23T23:22:13.090Z,99143.41
2023-04-23T23:24:40.217Z,99161.75
2023-04-23T23:27:07.407Z,99167.38
2023-04-23T23:29:34.451Z,99170.06
2023-04-23T23:32:01.757Z,99169.06
2023-04-23T23:34:28.777Z,99166.38
2023-04-23T23:36:56.408Z,99172.38
2023-04-23T23:39:23.686Z,99167.19
2023-04-23T23:41:50.891Z,99160.81
2023-04-23T23:44:17.950Z,99169.50
2023-04-23T23:46:45.152Z,99154.53
2023-04-23T23:49:12.325Z,99155.91
2023-04-23T23:51:39.400Z,99169.16
2023-04-23T23:54:06.596Z,99175.72
2023-04-23T23:56:33.688Z,99175.38
2023-04-23T23:59:00.911Z,99191.84
